Главная страница
METAR-TAF:

METAR-TAF

Аэропорты :

Брюссель, Бельгия

широта: 50-54N, долгота: 004-32E, высота над уровнем моря: 55 м

Текущие метеонаблюдения

Эта сводка был подготовлена 10 минут назад, в 18:50 UTC
Ветер 5 Узел от юго-юго-восточный
Температура 7°C
Влажность 87%
Давление 1024 hPa
Видимость 10 км и более
небольшая облачность на высоте 400 фута

METAR: EBBR 151850Z 15005KT 9999 FEW004 07/05 Q1024 BECMG 4000 BR

Время: 20:00 (19:00 UTC)

Прогноз

Эта сводка был подготовлена 1 час и 40 минут назад, в 17:20 UTC
Прогноз действительный с 15-го 18 UTC до 16-го 24 UTC
Ветер 5 Узел от южный
Видимость 10 км и более
Нет облачности ниже 1500 м, и нет кучево-дождевой облачности
Вероятность 40%
С 15-го 21 UTC до 16-го 10 UTC
Видимость: 2500 м
Рассеянная облачность на высоте 300 фута
дымка

TAF: EBBR 151720Z 1518/1624 17005KT CAVOK PROB40 1521/1610 2500 BR BKN003

Метеонаблюдения и прогнозы для более 4000 аэропортов (сводки METAR и TAF).

Имеющиеся станции представлены на карте желтыми и красными точками.

Чтобы увидеть название станции, наведите на нее мышь.

Затем щелкните, чтобы увидеть метеонаблюдения и метеопрогнозы.

Управление картой: чтобы увеличить масштаб, щелкните зеленые кнопки с черным крестиком; чтобы уменьшить масштаб, щелкните зеленую кнопку с тире; для просмотра соседних карт щелкайте зеленые стрелки.


METAR-TAF: